createdAt,value
2022-10-14T00:00:38.223Z,12.18
2022-10-14T00:03:05.872Z,12.25
2022-10-14T00:05:33.637Z,11.45
2022-10-14T00:08:01.315Z,10.93
2022-10-14T00:10:29.045Z,13.63
2022-10-14T00:12:56.664Z,10.82
2022-10-14T00:15:25.688Z,12.57
2022-10-14T00:17:53.290Z,11.77
2022-10-14T00:20:20.940Z,11.25
2022-10-14T00:22:48.562Z,12.25
2022-10-14T00:25:16.386Z,12.65
2022-10-14T00:27:44.047Z,11.52
2022-10-14T00:30:12.413Z,11.10
2022-10-14T00:32:41.379Z,10.50
2022-10-14T00:35:09.499Z,15.07
2022-10-14T00:37:37.096Z,15.32
2022-10-14T00:40:06.662Z,10.52
2022-10-14T00:42:34.897Z,10.70
2022-10-14T00:45:06.876Z,10.85
2022-10-14T00:47:34.700Z,14.45
2022-10-14T00:50:04.422Z,11.30
2022-10-14T00:52:32.091Z,11.40
2022-10-14T00:55:02.538Z,10.90
2022-10-14T00:57:30.759Z,10.50
2022-10-14T01:00:02.785Z,9.98
2022-10-14T01:02:30.812Z,10.25
2022-10-14T01:04:58.857Z,10.48
2022-10-14T01:07:35.050Z,10.90
2022-10-14T01:10:09.560Z,10.45
2022-10-14T01:12:43.005Z,10.13
2022-10-14T01:15:18.380Z,9.52
2022-10-14T01:17:55.474Z,10.00
2022-10-14T01:20:35.558Z,9.48
2022-10-14T01:23:29.956Z,8.98
2022-10-14T01:26:00.821Z,8.73
2022-10-14T01:28:35.642Z,9.88
2022-10-14T01:31:06.199Z,9.45
2022-10-14T01:33:37.012Z,9.30
2022-10-14T01:36:09.563Z,9.35
2022-10-14T01:38:39.614Z,10.77
2022-10-14T01:41:09.164Z,9.40
2022-10-14T01:43:37.597Z,9.73
2022-10-14T01:46:07.592Z,9.40
2022-10-14T01:48:37.336Z,9.10
2022-10-14T01:51:07.860Z,10.20
2022-10-14T01:53:39.393Z,9.15
2022-10-14T01:56:07.796Z,9.10
2022-10-14T01:58:36.204Z,10.48
2022-10-14T02:01:05.875Z,10.35
2022-10-14T02:03:44.364Z,10.27
2022-10-14T02:06:15.701Z,9.65
2022-10-14T02:09:05.252Z,10.60
2022-10-14T02:11:35.894Z,13.43
2022-10-14T02:14:13.379Z,9.63
2022-10-14T02:16:50.081Z,10.40
2022-10-14T02:19:25.784Z,11.60
2022-10-14T02:21:57.491Z,10.10
2022-10-14T02:24:29.545Z,10.63
2022-10-14T02:26:59.120Z,10.38
2022-10-14T02:29:27.725Z,9.68
2022-10-14T02:31:58.003Z,9.38
2022-10-14T02:34:27.332Z,9.68
2022-10-14T02:36:56.141Z,10.15
2022-10-14T02:39:27.894Z,9.52
2022-10-14T02:41:55.542Z,9.68
2022-10-14T02:44:23.374Z,10.30
2022-10-14T02:46:51.063Z,9.35
2022-10-14T02:49:20.148Z,9.77
2022-10-14T02:51:47.798Z,10.90
2022-10-14T02:54:15.535Z,9.50
2022-10-14T02:56:43.260Z,9.63
2022-10-14T02:59:10.934Z,9.82
2022-10-14T03:01:38.670Z,9.68
2022-10-14T03:04:06.311Z,10.23
2022-10-14T03:06:35.299Z,9.88
2022-10-14T03:09:02.948Z,10.13
2022-10-14T03:11:30.629Z,9.50
2022-10-14T03:13:58.227Z,9.90
2022-10-14T03:16:25.919Z,9.77
2022-10-14T03:18:53.547Z,9.77
2022-10-14T03:21:21.333Z,9.70
2022-10-14T03:23:50.595Z,10.50
2022-10-14T03:26:18.213Z,10.00
2022-10-14T03:28:45.940Z,10.02
2022-10-14T03:31:13.603Z,10.15
2022-10-14T03:33:41.276Z,10.73
2022-10-14T03:36:09.063Z,10.30
2022-10-14T03:38:36.700Z,10.07
2022-10-14T03:41:05.917Z,10.95
2022-10-14T03:43:33.606Z,10.07
2022-10-14T03:46:01.253Z,10.05
2022-10-14T03:48:28.879Z,10.80
2022-10-14T03:50:56.517Z,10.85
2022-10-14T03:53:24.141Z,10.43
2022-10-14T03:55:51.791Z,10.70
2022-10-14T03:58:20.830Z,10.70
2022-10-14T04:00:48.511Z,10.68
2022-10-14T04:03:16.237Z,11.18
2022-10-14T04:05:44.000Z,10.43
2022-10-14T04:08:11.670Z,10.82
2022-10-14T04:10:39.364Z,10.73
2022-10-14T04:13:07.241Z,11.13
2022-10-14T04:15:38.018Z,10.68
2022-10-14T04:18:05.786Z,10.32
2022-10-14T04:20:33.528Z,11.35
2022-10-14T04:23:01.698Z,11.00
2022-10-14T04:25:29.412Z,10.25
2022-10-14T04:27:57.229Z,10.75
2022-10-14T04:30:24.884Z,10.57
2022-10-14T04:32:53.972Z,11.13
2022-10-14T04:35:21.585Z,11.45
2022-10-14T04:37:49.192Z,13.88
2022-10-14T04:40:17.023Z,11.40
2022-10-14T04:42:44.717Z,10.75
2022-10-14T04:45:12.500Z,10.88
2022-10-14T04:47:42.840Z,11.13
2022-10-14T04:50:14.141Z,11.55
2022-10-14T04:52:41.793Z,12.32
2022-10-14T04:55:10.134Z,11.80
2022-10-14T04:57:40.292Z,11.95
2022-10-14T05:00:09.425Z,12.38
2022-10-14T05:02:37.061Z,12.32
2022-10-14T05:05:05.303Z,11.32
2022-10-14T05:07:34.367Z,10.90
2022-10-14T05:10:02.148Z,12.00
2022-10-14T05:12:29.909Z,13.48
2022-10-14T05:14:57.592Z,12.80
2022-10-14T05:17:25.352Z,15.07
2022-10-14T05:19:53.150Z,14.75
2022-10-14T05:22:21.166Z,12.48
2022-10-14T05:24:50.766Z,12.95
2022-10-14T05:27:18.615Z,12.38
2022-10-14T05:29:46.262Z,12.15
2022-10-14T05:32:13.930Z,11.10
2022-10-14T05:34:41.577Z,10.00
2022-10-14T05:37:09.427Z,10.68
2022-10-14T05:39:37.087Z,19.08
2022-10-14T05:42:06.431Z,11.43
2022-10-14T05:44:34.075Z,11.52
2022-10-14T05:47:01.773Z,11.40
2022-10-14T05:49:29.416Z,11.23
2022-10-14T05:51:57.082Z,11.18
2022-10-14T05:54:24.805Z,11.80
2022-10-14T05:56:52.505Z,11.73
2022-10-14T05:59:22.370Z,12.45
2022-10-14T06:01:50.144Z,10.85
2022-10-14T06:04:19.052Z,11.18
2022-10-14T06:06:46.868Z,11.77
2022-10-14T06:09:14.876Z,10.95
2022-10-14T06:11:42.609Z,10.75
2022-10-14T06:14:10.479Z,10.57
2022-10-14T06:16:39.538Z,11.05
2022-10-14T06:19:07.225Z,11.32
2022-10-14T06:21:34.905Z,12.63
2022-10-14T06:24:02.554Z,10.40
2022-10-14T06:26:30.180Z,10.85
2022-10-14T06:28:57.918Z,10.80
2022-10-14T06:31:29.844Z,11.15
2022-10-14T06:34:01.144Z,10.93
2022-10-14T06:36:28.826Z,11.55
2022-10-14T06:38:56.538Z,13.10
2022-10-14T06:41:24.889Z,12.82
2022-10-14T06:43:52.560Z,15.52
2022-10-14T06:46:20.227Z,11.20
2022-10-14T06:48:50.332Z,11.65
2022-10-14T06:51:19.561Z,10.73
2022-10-14T06:53:47.150Z,10.13
2022-10-14T06:56:14.738Z,10.95
2022-10-14T06:58:42.410Z,10.90
2022-10-14T07:01:10.157Z,10.48
2022-10-14T07:03:39.036Z,10.00
2022-10-14T07:06:08.256Z,10.50
2022-10-14T07:08:37.430Z,9.98
2022-10-14T07:11:05.760Z,9.98
2022-10-14T07:13:34.185Z,9.90
2022-10-14T07:16:02.200Z,9.57
2022-10-14T07:18:29.916Z,10.00
2022-10-14T07:20:57.605Z,9.65
2022-10-14T07:23:25.380Z,9.45
2022-10-14T07:25:56.993Z,9.65
2022-10-14T07:28:25.102Z,9.27
2022-10-14T07:30:58.967Z,9.27
2022-10-14T07:33:26.728Z,9.15
2022-10-14T07:35:54.501Z,9.68
2022-10-14T07:38:22.460Z,10.20
2022-10-14T07:40:59.494Z,9.00
2022-10-14T07:43:27.218Z,8.88
2022-10-14T07:46:00.422Z,9.13
2022-10-14T07:48:32.638Z,8.90
2022-10-14T07:51:07.128Z,9.13
2022-10-14T07:53:35.430Z,9.63
2022-10-14T07:56:04.750Z,9.85
2022-10-14T07:58:32.736Z,9.60
2022-10-14T08:01:00.367Z,9.52
2022-10-14T08:03:28.223Z,10.00
2022-10-14T08:06:02.910Z,10.55
2022-10-14T08:08:30.932Z,9.50
2022-10-14T08:11:05.381Z,9.30
2022-10-14T08:13:33.870Z,11.07
2022-10-14T08:16:01.928Z,10.30
2022-10-14T08:18:29.753Z,10.65
2022-10-14T08:20:57.384Z,9.98
2022-10-14T08:23:26.140Z,10.27
2022-10-14T08:25:53.749Z,9.48
2022-10-14T08:28:22.829Z,10.65
2022-10-14T08:30:50.484Z,10.25
2022-10-14T08:33:18.186Z,10.35
2022-10-14T08:35:49.147Z,10.55
2022-10-14T08:38:24.708Z,9.80
2022-10-14T08:40:59.960Z,9.82
2022-10-14T08:43:31.579Z,9.75
2022-10-14T08:46:06.123Z,10.52
2022-10-14T08:48:35.296Z,10.40
2022-10-14T08:51:08.319Z,10.88
2022-10-14T08:53:39.564Z,10.13
2022-10-14T08:56:08.806Z,10.03
2022-10-14T08:58:40.813Z,10.18
2022-10-14T09:01:17.485Z,10.13
2022-10-14T09:03:45.219Z,10.48
2022-10-14T09:06:16.703Z,10.20
2022-10-14T09:08:45.978Z,10.57
2022-10-14T09:11:15.898Z,10.25
2022-10-14T09:13:47.205Z,10.32
2022-10-14T09:16:18.863Z,10.00
2022-10-14T09:18:53.817Z,10.30
2022-10-14T09:21:40.804Z,10.98
2022-10-14T09:24:19.144Z,10.18
2022-10-14T09:26:48.646Z,10.35
2022-10-14T09:29:24.806Z,10.70
2022-10-14T09:31:52.621Z,10.40
2022-10-14T09:34:22.647Z,10.43
2022-10-14T09:39:20.103Z,10.68
2022-10-14T09:41:50.741Z,10.55
2022-10-14T09:44:22.697Z,10.48
2022-10-14T09:46:52.908Z,10.40
2022-10-14T09:49:23.478Z,10.20
2022-10-14T09:51:52.909Z,10.70
2022-10-14T09:54:26.501Z,10.73
2022-10-14T09:57:03.520Z,11.15
2022-10-14T09:59:33.259Z,10.82
2022-10-14T10:02:04.025Z,10.30
2022-10-14T10:04:37.088Z,10.60
2022-10-14T10:07:06.991Z,10.73
2022-10-14T10:09:35.165Z,10.43
2022-10-14T10:12:23.648Z,10.63
2022-10-14T10:14:59.841Z,10.90
2022-10-14T10:17:28.655Z,11.23
2022-10-14T10:20:09.463Z,10.65
2022-10-14T10:22:38.914Z,10.95
2022-10-14T10:25:21.065Z,10.90
2022-10-14T10:27:50.938Z,11.02
2022-10-14T10:30:25.480Z,10.98
2022-10-14T10:33:06.135Z,10.90
2022-10-14T10:35:48.107Z,10.93
2022-10-14T10:38:22.654Z,11.02
2022-10-14T10:41:00.524Z,10.82
2022-10-14T10:43:42.838Z,10.88
2022-10-14T10:48:54.045Z,11.52
2022-10-14T10:51:27.635Z,11.75
2022-10-14T10:54:03.725Z,11.30
2022-10-14T10:56:34.270Z,11.05
2022-10-14T10:59:17.502Z,11.40
2022-10-14T11:01:51.488Z,10.63
2022-10-14T11:04:27.691Z,11.20
2022-10-14T11:07:27.077Z,10.95
2022-10-14T11:10:22.738Z,11.05
2022-10-14T11:12:55.636Z,10.23
2022-10-14T11:15:43.372Z,12.02
2022-10-14T11:18:15.851Z,10.70
2022-10-14T11:20:53.467Z,11.00
2022-10-14T11:23:40.946Z,10.95
2022-10-14T11:26:18.526Z,10.82
2022-10-14T11:28:52.298Z,11.30
2022-10-14T11:31:28.614Z,10.73
2022-10-14T11:34:08.022Z,10.88
2022-10-14T11:36:41.650Z,11.05
2022-10-14T11:39:21.449Z,10.98
2022-10-14T11:42:01.493Z,10.80
2022-10-14T11:44:36.801Z,11.07
2022-10-14T11:47:09.996Z,11.32
2022-10-14T11:49:46.073Z,11.38
2022-10-14T11:52:18.565Z,10.38
2022-10-14T11:54:48.628Z,10.75
2022-10-14T11:57:25.769Z,10.70
2022-10-14T12:00:14.278Z,11.68
2022-10-14T12:02:44.416Z,11.15
2022-10-14T12:05:18.524Z,10.70
2022-10-14T12:07:52.145Z,10.75
2022-10-14T12:10:26.867Z,11.45
2022-10-14T12:12:56.714Z,11.00
2022-10-14T12:15:26.373Z,10.70
2022-10-14T12:17:55.785Z,10.65
2022-10-14T12:20:31.652Z,10.70
2022-10-14T12:22:59.912Z,10.60
2022-10-14T12:25:29.437Z,10.30
2022-10-14T12:27:57.343Z,10.70
2022-10-14T12:30:36.794Z,10.88
2022-10-14T12:33:05.836Z,10.73
2022-10-14T12:35:52.805Z,10.40
2022-10-14T12:38:21.669Z,10.50
2022-10-14T12:40:50.114Z,10.90
2022-10-14T12:43:24.583Z,10.63
2022-10-14T12:46:04.688Z,10.77
2022-10-14T12:48:34.881Z,10.43
2022-10-14T12:51:13.230Z,10.43
2022-10-14T12:53:49.860Z,11.10
2022-10-14T12:56:30.842Z,11.32
2022-10-14T12:59:01.819Z,11.18
2022-10-14T13:01:33.753Z,10.40
2022-10-14T13:04:07.016Z,11.65
2022-10-14T13:06:39.546Z,11.38
2022-10-14T13:09:41.042Z,11.02
2022-10-14T13:12:36.689Z,10.88
2022-10-14T13:15:05.815Z,11.60
2022-10-14T13:17:46.300Z,12.05
2022-10-14T13:20:51.588Z,11.95
2022-10-14T13:23:36.345Z,11.10
2022-10-14T13:26:24.479Z,11.27
2022-10-14T13:29:08.872Z,11.68
2022-10-14T13:31:43.425Z,11.43
2022-10-14T13:34:23.965Z,11.40
2022-10-14T13:37:05.206Z,10.90
2022-10-14T13:39:34.639Z,10.60
2022-10-14T13:42:03.032Z,10.32
2022-10-14T13:44:30.919Z,10.60
2022-10-14T13:46:58.703Z,10.63
2022-10-14T13:49:32.666Z,11.70
2022-10-14T13:52:01.605Z,10.98
2022-10-14T13:54:31.009Z,10.30
2022-10-14T14:00:39.612Z,10.23
2022-10-14T14:02:48.126Z,10.30
2022-10-14T14:05:19.897Z,10.32
2022-10-14T14:08:45.904Z,11.23
2022-10-14T14:10:51.490Z,9.65
2022-10-14T14:13:26.422Z,10.10
2022-10-14T14:15:55.293Z,10.30
2022-10-14T14:18:43.524Z,11.00
2022-10-14T14:21:23.367Z,11.00
2022-10-14T14:23:52.086Z,10.75
2022-10-14T14:26:20.890Z,12.80
2022-10-14T14:28:50.647Z,11.20
2022-10-14T14:31:33.659Z,11.48
2022-10-14T14:34:17.174Z,10.73
2022-10-14T14:36:51.079Z,10.88
2022-10-14T14:39:23.341Z,11.60
2022-10-14T14:41:52.641Z,12.83
2022-10-14T14:44:26.317Z,11.05
2022-10-14T14:46:57.913Z,15.02
2022-10-14T14:49:28.201Z,12.57
2022-10-14T14:51:56.526Z,13.07
2022-10-14T15:05:17.511Z,24.48
2022-10-14T15:08:07.246Z,16.98
2022-10-14T15:10:35.058Z,14.32
2022-10-14T15:13:28.204Z,11.15
2022-10-14T15:19:38.426Z,11.57
2022-10-14T15:22:27.070Z,10.93
2022-10-14T15:25:00.809Z,11.15
2022-10-14T15:27:46.631Z,10.43
2022-10-14T15:30:38.537Z,10.90
2022-10-14T15:33:15.500Z,11.30
2022-10-14T15:35:43.823Z,10.60
2022-10-14T15:38:17.353Z,10.93
2022-10-14T15:40:47.988Z,11.70
2022-10-14T15:43:17.777Z,11.63
2022-10-14T15:45:46.952Z,11.93
2022-10-14T15:48:18.846Z,12.27
2022-10-14T15:50:47.421Z,11.20
2022-10-14T15:53:15.197Z,11.55
2022-10-14T15:55:43.060Z,14.98
2022-10-14T15:58:12.260Z,11.23
2022-10-14T16:00:40.089Z,12.65
2022-10-14T16:03:07.933Z,11.65
2022-10-14T16:05:38.631Z,12.18
2022-10-14T16:08:11.169Z,10.75
2022-10-14T16:10:39.085Z,11.60
2022-10-14T16:13:06.892Z,12.73
2022-10-14T16:15:40.303Z,12.00
2022-10-14T16:18:08.779Z,12.13
2022-10-14T16:20:36.964Z,11.77
2022-10-14T16:23:04.991Z,12.00
2022-10-14T16:25:38.778Z,11.70
2022-10-14T16:28:10.066Z,10.95
2022-10-14T16:30:41.808Z,11.25
2022-10-14T16:35:38.660Z,13.02
2022-10-14T16:38:07.093Z,12.93
2022-10-14T16:40:36.767Z,11.63
2022-10-14T16:43:18.742Z,12.48
2022-10-14T16:45:48.049Z,12.95
2022-10-14T16:48:15.840Z,11.52
2022-10-14T16:50:43.472Z,11.65
2022-10-14T16:53:28.747Z,13.13
2022-10-14T16:55:57.854Z,12.65
2022-10-14T16:58:25.843Z,11.38
2022-10-14T17:00:55.034Z,12.77
2022-10-14T17:03:22.645Z,15.10
2022-10-14T17:05:57.710Z,16.10
2022-10-14T17:08:25.389Z,14.05
2022-10-14T17:10:58.366Z,13.43
2022-10-14T17:13:26.064Z,11.65
2022-10-14T17:16:01.941Z,11.95
2022-10-14T17:18:34.381Z,12.05
2022-10-14T17:21:02.845Z,11.35
2022-10-14T17:23:31.981Z,11.80
2022-10-14T17:25:59.609Z,12.77
2022-10-14T17:28:27.350Z,11.75
2022-10-14T17:30:55.098Z,12.13
2022-10-14T17:33:24.584Z,12.77
2022-10-14T17:35:57.155Z,11.30
2022-10-14T17:38:25.293Z,11.88
2022-10-14T17:40:53.100Z,12.00
2022-10-14T17:43:20.745Z,11.52
2022-10-14T17:45:48.440Z,12.18
2022-10-14T17:48:16.883Z,11.27
2022-10-14T17:50:47.929Z,11.75
2022-10-14T17:53:15.560Z,13.75
2022-10-14T17:55:43.242Z,11.60
2022-10-14T17:58:10.905Z,12.25
2022-10-14T18:00:38.604Z,13.02
2022-10-14T18:03:08.432Z,13.15
2022-10-14T18:05:38.010Z,20.80
2022-10-14T18:08:07.118Z,15.35
2022-10-14T18:10:36.335Z,13.45
2022-10-14T18:13:04.174Z,16.15
2022-10-14T18:15:31.976Z,13.38
2022-10-14T18:18:00.176Z,15.02
2022-10-14T18:20:28.071Z,13.32
2022-10-14T18:22:55.793Z,19.67
2022-10-14T18:25:24.813Z,15.23
2022-10-14T18:27:53.174Z,15.30
2022-10-14T18:30:20.811Z,13.27
2022-10-14T18:32:48.460Z,11.60
2022-10-14T18:35:16.100Z,11.48
2022-10-14T18:37:43.745Z,11.52
2022-10-14T18:40:14.354Z,11.07
2022-10-14T18:42:43.397Z,11.43
2022-10-14T18:45:11.236Z,11.15
2022-10-14T18:47:38.885Z,11.35
2022-10-14T18:50:07.075Z,11.93
2022-10-14T18:52:34.837Z,11.07
2022-10-14T18:55:02.474Z,11.63
2022-10-14T18:57:30.261Z,11.60
2022-10-14T18:59:59.269Z,10.77
2022-10-14T19:02:26.959Z,11.07
2022-10-14T19:04:55.988Z,12.10
2022-10-14T19:07:23.632Z,11.35
2022-10-14T19:09:52.979Z,12.23
2022-10-14T19:12:40.711Z,11.13
2022-10-14T19:15:11.146Z,11.52
2022-10-14T19:17:38.845Z,12.25
2022-10-14T19:20:08.367Z,12.13
2022-10-14T19:22:40.730Z,11.30
2022-10-14T19:25:09.303Z,12.90
2022-10-14T19:27:36.940Z,12.30
2022-10-14T19:30:07.913Z,12.43
2022-10-14T19:32:37.013Z,12.50
2022-10-14T19:35:05.032Z,11.73
2022-10-14T19:37:32.758Z,11.20
2022-10-14T19:40:00.453Z,12.07
2022-10-14T19:42:28.150Z,12.40
2022-10-14T19:44:55.761Z,12.55
2022-10-14T19:47:23.730Z,11.43
2022-10-14T19:49:53.005Z,12.43
2022-10-14T19:52:20.671Z,12.10
2022-10-14T19:54:48.268Z,12.15
2022-10-14T19:57:15.935Z,11.85
2022-10-14T19:59:43.604Z,12.40
2022-10-14T20:02:11.455Z,11.60
2022-10-14T20:04:39.119Z,11.90
2022-10-14T20:07:08.178Z,11.40
2022-10-14T20:09:35.856Z,10.55
2022-10-14T20:12:03.579Z,11.20
2022-10-14T20:14:31.652Z,11.30
2022-10-14T20:16:59.320Z,12.60
2022-10-14T20:19:26.947Z,13.13
2022-10-14T20:21:54.538Z,12.65
2022-10-14T20:24:23.520Z,11.55
2022-10-14T20:26:51.142Z,11.13
2022-10-14T20:29:18.920Z,11.07
2022-10-14T20:31:46.686Z,11.13
2022-10-14T20:34:14.662Z,10.65
2022-10-14T20:36:42.236Z,11.95
2022-10-14T20:39:10.118Z,10.02
2022-10-14T20:41:39.166Z,11.40
2022-10-14T20:44:06.897Z,11.50
2022-10-14T20:46:34.560Z,11.70
2022-10-14T20:49:02.251Z,11.60
2022-10-14T20:51:30.031Z,10.95
2022-10-14T20:54:02.714Z,10.95
2022-10-14T20:56:32.692Z,11.85
2022-10-14T20:59:04.022Z,11.02
2022-10-14T21:01:32.546Z,11.33
2022-10-14T21:04:02.128Z,10.60
2022-10-14T21:06:30.275Z,10.18
2022-10-14T21:08:58.500Z,11.20
2022-10-14T21:11:27.857Z,10.43
2022-10-14T21:13:57.302Z,10.88
2022-10-14T21:16:28.244Z,12.02
2022-10-14T21:18:58.521Z,10.90
2022-10-14T21:21:27.754Z,10.40
2022-10-14T21:23:55.993Z,10.25
2022-10-14T21:26:24.069Z,10.50
2022-10-14T21:28:51.877Z,10.85
2022-10-14T21:31:20.400Z,10.43
2022-10-14T21:33:50.219Z,9.82
2022-10-14T21:36:18.041Z,10.52
2022-10-14T21:38:46.024Z,10.50
2022-10-14T21:41:13.847Z,10.73
2022-10-14T21:43:41.872Z,10.50
2022-10-14T21:46:12.415Z,10.20
2022-10-14T21:48:40.859Z,9.77
2022-10-14T21:51:11.361Z,10.50
2022-10-14T21:53:41.313Z,10.80
2022-10-14T21:56:09.647Z,10.80
2022-10-14T21:58:37.904Z,9.85
2022-10-14T22:01:07.693Z,10.40
2022-10-14T22:03:36.415Z,10.68
2022-10-14T22:08:41.873Z,10.32
2022-10-14T22:11:16.467Z,10.10
2022-10-14T22:13:44.367Z,10.18
2022-10-14T22:16:13.496Z,9.63
2022-10-14T22:18:43.502Z,10.70
2022-10-14T22:21:11.594Z,11.68
2022-10-14T22:23:40.758Z,10.68
2022-10-14T22:26:09.990Z,9.85
2022-10-14T22:28:37.729Z,9.80
2022-10-14T22:31:06.149Z,10.05
2022-10-14T22:33:36.111Z,10.18
2022-10-14T22:36:08.309Z,10.18
2022-10-14T22:41:06.564Z,10.55
2022-10-14T22:43:34.710Z,9.77
2022-10-14T22:46:03.394Z,9.02
2022-10-14T22:48:31.730Z,9.80
2022-10-14T22:51:03.335Z,9.60
2022-10-14T22:53:31.075Z,9.70
2022-10-14T22:55:58.833Z,9.82
2022-10-14T22:58:28.482Z,8.95
2022-10-14T23:00:56.177Z,9.20
2022-10-14T23:03:27.097Z,9.63
2022-10-14T23:05:55.750Z,9.55
2022-10-14T23:08:24.592Z,10.10
2022-10-14T23:10:53.134Z,9.38
2022-10-14T23:13:21.413Z,10.73
2022-10-14T23:15:57.649Z,9.93
2022-10-14T23:18:26.996Z,9.40
2022-10-14T23:20:55.671Z,10.00
2022-10-14T23:23:24.011Z,9.55
2022-10-14T23:25:52.381Z,9.48
2022-10-14T23:28:20.343Z,9.90
2022-10-14T23:30:50.366Z,8.70
2022-10-14T23:33:19.469Z,9.43
2022-10-14T23:35:47.117Z,9.00
2022-10-14T23:38:14.985Z,9.90
2022-10-14T23:40:42.635Z,9.70
2022-10-14T23:43:10.287Z,8.90
2022-10-14T23:45:37.974Z,9.25
2022-10-14T23:48:06.177Z,8.48
2022-10-14T23:50:35.272Z,10.25
2022-10-14T23:53:02.947Z,9.20
2022-10-14T23:55:30.766Z,10.13
2022-10-14T23:57:58.467Z,9.30
